sensor_id;sensor_type;location;lat;lon;timestamp;P1;durP1;ratioP1;P2;durP2;ratioP2
8450;SDS011;4262;50.980;13.892;2023-04-06T03:31:55;16.90;;;9.67;;
8450;SDS011;4262;50.980;13.892;2023-04-06T03:34:35;15.67;;;8.60;;
8450;SDS011;4262;50.980;13.892;2023-04-06T03:37:02;16.50;;;9.43;;
8450;SDS011;4262;50.980;13.892;2023-04-06T03:39:29;17.47;;;9.00;;
8450;SDS011;4262;50.980;13.892;2023-04-06T03:41:57;13.77;;;9.37;;
8450;SDS011;4262;50.980;13.892;2023-04-06T03:44:32;17.83;;;9.90;;
8450;SDS011;4262;50.980;13.892;2023-04-06T03:47:01;17.27;;;9.73;;
8450;SDS011;4262;50.980;13.892;2023-04-06T03:49:29;14.40;;;8.77;;
8450;SDS011;4262;50.980;13.892;2023-04-06T03:51:58;19.17;;;9.47;;
8450;SDS011;4262;50.980;13.892;2023-04-06T03:54:24;18.00;;;10.83;;
8450;SDS011;4262;50.980;13.892;2023-04-06T03:56:52;18.03;;;8.97;;
8450;SDS011;4262;50.980;13.892;2023-04-06T03:59:18;22.70;;;9.53;;
8450;SDS011;4262;50.980;13.892;2023-04-06T04:01:47;17.13;;;9.27;;
8450;SDS011;4262;50.980;13.892;2023-04-06T04:04:15;17.80;;;9.40;;
8450;SDS011;4262;50.980;13.892;2023-04-06T04:06:42;15.30;;;9.23;;
8450;SDS011;4262;50.980;13.892;2023-04-06T04:09:08;14.70;;;9.17;;
8450;SDS011;4262;50.980;13.892;2023-04-06T04:11:35;15.80;;;9.47;;
8450;SDS011;4262;50.980;13.892;2023-04-06T04:14:02;16.27;;;8.77;;
8450;SDS011;4262;50.980;13.892;2023-04-06T04:16:28;18.10;;;10.77;;
8450;SDS011;4262;50.980;13.892;2023-04-06T04:18:55;16.00;;;8.60;;
8450;SDS011;4262;50.980;13.892;2023-04-06T04:21:27;16.53;;;9.30;;
8450;SDS011;4262;50.980;13.892;2023-04-06T04:23:55;15.03;;;9.50;;
8450;SDS011;4262;50.980;13.892;2023-04-06T04:26:22;20.50;;;10.60;;
8450;SDS011;4262;50.980;13.892;2023-04-06T04:28:49;15.73;;;9.60;;
8450;SDS011;4262;50.980;13.892;2023-04-06T04:31:17;17.17;;;10.03;;
8450;SDS011;4262;50.980;13.892;2023-04-06T04:33:48;16.03;;;9.57;;
8450;SDS011;4262;50.980;13.892;2023-04-06T04:36:23;17.73;;;10.20;;
8450;SDS011;4262;50.980;13.892;2023-04-06T04:38:54;18.07;;;10.17;;
8450;SDS011;4262;50.980;13.892;2023-04-06T04:41:23;18.97;;;10.03;;
8450;SDS011;4262;50.980;13.892;2023-04-06T04:43:50;17.77;;;11.50;;
8450;SDS011;4262;50.980;13.892;2023-04-06T04:46:21;19.87;;;10.80;;
8450;SDS011;4262;50.980;13.892;2023-04-06T04:48:48;21.97;;;11.00;;
8450;SDS011;4262;50.980;13.892;2023-04-06T04:51:15;19.90;;;10.13;;
8450;SDS011;4262;50.980;13.892;2023-04-06T04:53:57;17.20;;;9.43;;
8450;SDS011;4262;50.980;13.892;2023-04-06T04:56:28;16.83;;;9.60;;
8450;SDS011;4262;50.980;13.892;2023-04-06T04:59:03;16.80;;;10.30;;
8450;SDS011;4262;50.980;13.892;2023-04-06T05:01:35;16.63;;;9.07;;
8450;SDS011;4262;50.980;13.892;2023-04-06T05:04:02;15.90;;;10.30;;
8450;SDS011;4262;50.980;13.892;2023-04-06T05:06:29;14.70;;;10.23;;
8450;SDS011;4262;50.980;13.892;2023-04-06T05:08:58;16.07;;;9.67;;
8450;SDS011;4262;50.980;13.892;2023-04-06T05:11:27;15.63;;;9.90;;
8450;SDS011;4262;50.980;13.892;2023-04-06T05:13:59;15.47;;;9.80;;
8450;SDS011;4262;50.980;13.892;2023-04-06T05:16:27;13.03;;;8.63;;
8450;SDS011;4262;50.980;13.892;2023-04-06T05:18:54;14.33;;;10.47;;
8450;SDS011;4262;50.980;13.892;2023-04-06T05:21:26;17.63;;;10.50;;
8450;SDS011;4262;50.980;13.892;2023-04-06T05:24:04;16.50;;;9.87;;
8450;SDS011;4262;50.980;13.892;2023-04-06T05:26:32;20.53;;;11.80;;
8450;SDS011;4262;50.980;13.892;2023-04-06T05:29:05;17.80;;;10.60;;
8450;SDS011;4262;50.980;13.892;2023-04-06T05:31:36;14.13;;;9.63;;
8450;SDS011;4262;50.980;13.892;2023-04-06T05:34:02;15.97;;;9.60;;
8450;SDS011;4262;50.980;13.892;2023-04-06T05:36:33;19.30;;;11.50;;
8450;SDS011;4262;50.980;13.892;2023-04-06T05:39:07;18.63;;;10.57;;
8450;SDS011;4262;50.980;13.892;2023-04-06T05:41:41;19.83;;;12.07;;
8450;SDS011;4262;50.980;13.892;2023-04-06T05:44:09;17.33;;;10.20;;
8450;SDS011;4262;50.980;13.892;2023-04-06T05:46:40;16.23;;;10.00;;
8450;SDS011;4262;50.980;13.892;2023-04-06T05:49:12;18.07;;;10.77;;
8450;SDS011;4262;50.980;13.892;2023-04-06T05:51:40;20.57;;;9.90;;
8450;SDS011;4262;50.980;13.892;2023-04-06T05:54:09;17.40;;;8.93;;
8450;SDS011;4262;50.980;13.892;2023-04-06T05:56:36;16.57;;;10.40;;
8450;SDS011;4262;50.980;13.892;2023-04-06T05:59:05;22.50;;;9.20;;
8450;SDS011;4262;50.980;13.892;2023-04-06T06:01:33;20.63;;;8.87;;
8450;SDS011;4262;50.980;13.892;2023-04-06T06:04:00;19.37;;;8.50;;
8450;SDS011;4262;50.980;13.892;2023-04-06T06:06:29;18.97;;;9.57;;
8450;SDS011;4262;50.980;13.892;2023-04-06T06:09:16;15.80;;;8.80;;
8450;SDS011;4262;50.980;13.892;2023-04-06T06:11:55;16.50;;;9.10;;
8450;SDS011;4262;50.980;13.892;2023-04-06T06:14:25;18.33;;;9.23;;
8450;SDS011;4262;50.980;13.892;2023-04-06T06:16:55;19.23;;;9.60;;
8450;SDS011;4262;50.980;13.892;2023-04-06T06:19:22;14.30;;;8.20;;
8450;SDS011;4262;50.980;13.892;2023-04-06T06:21:53;18.23;;;9.13;;
8450;SDS011;4262;50.980;13.892;2023-04-06T06:24:21;17.87;;;9.50;;
8450;SDS011;4262;50.980;13.892;2023-04-06T06:26:49;17.03;;;8.87;;
8450;SDS011;4262;50.980;13.892;2023-04-06T06:29:18;18.23;;;9.30;;
8450;SDS011;4262;50.980;13.892;2023-04-06T06:31:47;22.00;;;8.50;;
8450;SDS011;4262;50.980;13.892;2023-04-06T06:34:15;16.47;;;8.40;;
8450;SDS011;4262;50.980;13.892;2023-04-06T06:36:42;16.27;;;8.70;;
8450;SDS011;4262;50.980;13.892;2023-04-06T06:39:11;19.50;;;9.90;;
8450;SDS011;4262;50.980;13.892;2023-04-06T06:41:39;18.50;;;8.80;;
8450;SDS011;4262;50.980;13.892;2023-04-06T06:44:08;20.07;;;10.50;;
8450;SDS011;4262;50.980;13.892;2023-04-06T06:46:36;20.40;;;10.37;;
8450;SDS011;4262;50.980;13.892;2023-04-06T06:49:02;20.83;;;10.17;;
8450;SDS011;4262;50.980;13.892;2023-04-06T06:51:29;20.43;;;10.10;;
8450;SDS011;4262;50.980;13.892;2023-04-06T06:53:57;17.73;;;8.77;;
8450;SDS011;4262;50.980;13.892;2023-04-06T06:56:24;15.70;;;8.70;;
8450;SDS011;4262;50.980;13.892;2023-04-06T06:58:54;16.30;;;9.00;;
8450;SDS011;4262;50.980;13.892;2023-04-06T07:01:22;17.60;;;9.60;;
8450;SDS011;4262;50.980;13.892;2023-04-06T07:03:49;16.90;;;8.50;;
8450;SDS011;4262;50.980;13.892;2023-04-06T07:06:16;15.57;;;9.07;;
8450;SDS011;4262;50.980;13.892;2023-04-06T07:08:42;20.47;;;9.83;;
8450;SDS011;4262;50.980;13.892;2023-04-06T07:11:09;18.27;;;9.27;;
8450;SDS011;4262;50.980;13.892;2023-04-06T07:13:37;15.70;;;8.50;;
8450;SDS011;4262;50.980;13.892;2023-04-06T07:16:07;22.63;;;8.67;;
8450;SDS011;4262;50.980;13.892;2023-04-06T07:18:34;17.80;;;9.20;;
8450;SDS011;4262;50.980;13.892;2023-04-06T07:21:01;19.27;;;9.17;;
8450;SDS011;4262;50.980;13.892;2023-04-06T07:23:29;20.20;;;10.07;;
8450;SDS011;4262;50.980;13.892;2023-04-06T07:25:56;15.13;;;8.40;;
8450;SDS011;4262;50.980;13.892;2023-04-06T07:28:22;16.17;;;9.00;;
8450;SDS011;4262;50.980;13.892;2023-04-06T07:30:49;15.00;;;8.27;;
8450;SDS011;4262;50.980;13.892;2023-04-06T07:33:18;15.43;;;7.23;;
8450;SDS011;4262;50.980;13.892;2023-04-06T07:35:45;21.07;;;8.53;;
8450;SDS011;4262;50.980;13.892;2023-04-06T07:38:12;21.50;;;10.07;;
8450;SDS011;4262;50.980;13.892;2023-04-06T07:40:39;23.80;;;9.70;;
8450;SDS011;4262;50.980;13.892;2023-04-06T07:43:08;21.77;;;8.20;;
8450;SDS011;4262;50.980;13.892;2023-04-06T07:45:35;16.77;;;8.60;;
8450;SDS011;4262;50.980;13.892;2023-04-06T07:48:02;17.97;;;8.97;;
8450;SDS011;4262;50.980;13.892;2023-04-06T07:50:31;18.30;;;8.93;;
8450;SDS011;4262;50.980;13.892;2023-04-06T07:53:01;17.43;;;9.20;;
8450;SDS011;4262;50.980;13.892;2023-04-06T07:55:28;19.10;;;8.60;;
8450;SDS011;4262;50.980;13.892;2023-04-06T07:57:55;18.17;;;8.70;;
8450;SDS011;4262;50.980;13.892;2023-04-06T08:00:22;18.20;;;8.23;;
8450;SDS011;4262;50.980;13.892;2023-04-06T08:02:49;15.60;;;6.93;;
8450;SDS011;4262;50.980;13.892;2023-04-06T08:05:16;15.83;;;8.10;;
8450;SDS011;4262;50.980;13.892;2023-04-06T08:07:45;17.73;;;9.23;;
8450;SDS011;4262;50.980;13.892;2023-04-06T08:10:12;15.03;;;7.07;;
8450;SDS011;4262;50.980;13.892;2023-04-06T08:12:40;16.33;;;7.30;;
8450;SDS011;4262;50.980;13.892;2023-04-06T08:15:07;18.30;;;8.00;;
8450;SDS011;4262;50.980;13.892;2023-04-06T08:17:35;17.77;;;8.60;;
8450;SDS011;4262;50.980;13.892;2023-04-06T08:20:02;16.37;;;7.33;;
8450;SDS011;4262;50.980;13.892;2023-04-06T08:22:30;19.43;;;9.27;;
8450;SDS011;4262;50.980;13.892;2023-04-06T08:24:58;17.90;;;8.37;;
8450;SDS011;4262;50.980;13.892;2023-04-06T08:27:25;16.10;;;6.77;;
8450;SDS011;4262;50.980;13.892;2023-04-06T08:29:52;15.83;;;7.90;;
8450;SDS011;4262;50.980;13.892;2023-04-06T08:32:20;16.97;;;7.40;;
8450;SDS011;4262;50.980;13.892;2023-04-06T08:34:47;14.63;;;7.10;;
8450;SDS011;4262;50.980;13.892;2023-04-06T08:37:13;15.07;;;7.40;;
8450;SDS011;4262;50.980;13.892;2023-04-06T08:39:40;15.67;;;7.83;;
8450;SDS011;4262;50.980;13.892;2023-04-06T08:42:11;14.90;;;6.60;;
8450;SDS011;4262;50.980;13.892;2023-04-06T08:44:43;13.43;;;6.67;;
8450;SDS011;4262;50.980;13.892;2023-04-06T08:47:12;13.70;;;6.57;;
8450;SDS011;4262;50.980;13.892;2023-04-06T08:49:40;11.83;;;6.60;;
8450;SDS011;4262;50.980;13.892;2023-04-06T08:52:08;13.83;;;6.90;;
8450;SDS011;4262;50.980;13.892;2023-04-06T08:54:37;18.20;;;6.60;;
8450;SDS011;4262;50.980;13.892;2023-04-06T08:57:04;13.40;;;6.60;;
8450;SDS011;4262;50.980;13.892;2023-04-06T08:59:33;14.30;;;6.50;;
8450;SDS011;4262;50.980;13.892;2023-04-06T09:02:03;14.00;;;7.00;;
8450;SDS011;4262;50.980;13.892;2023-04-06T09:04:31;11.63;;;6.20;;
8450;SDS011;4262;50.980;13.892;2023-04-06T09:06:59;12.93;;;6.53;;
8450;SDS011;4262;50.980;13.892;2023-04-06T09:09:26;14.10;;;6.47;;
8450;SDS011;4262;50.980;13.892;2023-04-06T09:11:53;14.27;;;6.37;;
8450;SDS011;4262;50.980;13.892;2023-04-06T09:14:34;17.00;;;6.07;;
8450;SDS011;4262;50.980;13.892;2023-04-06T09:17:04;12.90;;;5.87;;
8450;SDS011;4262;50.980;13.892;2023-04-06T09:19:31;13.53;;;6.27;;
8450;SDS011;4262;50.980;13.892;2023-04-06T09:22:01;13.80;;;6.47;;
8450;SDS011;4262;50.980;13.892;2023-04-06T09:24:41;12.90;;;6.33;;
8450;SDS011;4262;50.980;13.892;2023-04-06T09:27:08;13.17;;;6.10;;
8450;SDS011;4262;50.980;13.892;2023-04-06T09:29:36;12.13;;;5.83;;
8450;SDS011;4262;50.980;13.892;2023-04-06T09:32:05;12.13;;;6.20;;
8450;SDS011;4262;50.980;13.892;2023-04-06T09:34:33;14.60;;;5.33;;
8450;SDS011;4262;50.980;13.892;2023-04-06T09:37:00;12.10;;;6.13;;
8450;SDS011;4262;50.980;13.892;2023-04-06T09:39:38;12.13;;;6.10;;
8450;SDS011;4262;50.980;13.892;2023-04-06T09:42:05;10.70;;;5.03;;
8450;SDS011;4262;50.980;13.892;2023-04-06T09:44:33;13.27;;;5.80;;
8450;SDS011;4262;50.980;13.892;2023-04-06T09:47:01;11.30;;;5.10;;
8450;SDS011;4262;50.980;13.892;2023-04-06T09:49:32;10.87;;;5.70;;
8450;SDS011;4262;50.980;13.892;2023-04-06T09:52:00;11.00;;;5.43;;
8450;SDS011;4262;50.980;13.892;2023-04-06T09:54:28;9.40;;;4.13;;
8450;SDS011;4262;50.980;13.892;2023-04-06T09:56:58;9.77;;;4.87;;
8450;SDS011;4262;50.980;13.892;2023-04-06T09:59:31;12.77;;;5.00;;
8450;SDS011;4262;50.980;13.892;2023-04-06T10:02:12;9.10;;;4.60;;
8450;SDS011;4262;50.980;13.892;2023-04-06T10:04:46;11.00;;;5.33;;
8450;SDS011;4262;50.980;13.892;2023-04-06T10:07:21;11.90;;;4.97;;
8450;SDS011;4262;50.980;13.892;2023-04-06T10:09:49;11.70;;;5.57;;
8450;SDS011;4262;50.980;13.892;2023-04-06T10:12:17;11.40;;;5.47;;
8450;SDS011;4262;50.980;13.892;2023-04-06T10:14:45;10.33;;;4.83;;
8450;SDS011;4262;50.980;13.892;2023-04-06T10:17:15;9.77;;;4.90;;
8450;SDS011;4262;50.980;13.892;2023-04-06T10:19:44;11.83;;;4.80;;
8450;SDS011;4262;50.980;13.892;2023-04-06T10:22:18;13.87;;;5.47;;
8450;SDS011;4262;50.980;13.892;2023-04-06T10:24:52;10.50;;;4.53;;
8450;SDS011;4262;50.980;13.892;2023-04-06T10:27:26;9.90;;;4.20;;
8450;SDS011;4262;50.980;13.892;2023-04-06T10:29:54;12.90;;;4.63;;
8450;SDS011;4262;50.980;13.892;2023-04-06T10:32:34;10.40;;;4.60;;
8450;SDS011;4262;50.980;13.892;2023-04-06T10:35:06;9.90;;;4.80;;
8450;SDS011;4262;50.980;13.892;2023-04-06T10:37:48;10.87;;;4.37;;
8450;SDS011;4262;50.980;13.892;2023-04-06T10:40:23;11.10;;;4.70;;
8450;SDS011;4262;50.980;13.892;2023-04-06T10:42:52;10.00;;;4.33;;
8450;SDS011;4262;50.980;13.892;2023-04-06T10:45:21;19.60;;;5.20;;
8450;SDS011;4262;50.980;13.892;2023-04-06T10:47:50;10.27;;;5.23;;
8450;SDS011;4262;50.980;13.892;2023-04-06T10:50:19;12.37;;;5.57;;
8450;SDS011;4262;50.980;13.892;2023-04-06T10:52:46;10.50;;;4.30;;
8450;SDS011;4262;50.980;13.892;2023-04-06T10:55:26;10.90;;;4.90;;
8450;SDS011;4262;50.980;13.892;2023-04-06T10:57:53;10.77;;;4.73;;
8450;SDS011;4262;50.980;13.892;2023-04-06T11:00:20;10.30;;;4.47;;
8450;SDS011;4262;50.980;13.892;2023-04-06T11:02:47;11.13;;;5.17;;
8450;SDS011;4262;50.980;13.892;2023-04-06T11:05:16;12.80;;;5.23;;
8450;SDS011;4262;50.980;13.892;2023-04-06T11:07:43;12.00;;;5.90;;
8450;SDS011;4262;50.980;13.892;2023-04-06T11:10:10;10.73;;;4.90;;
8450;SDS011;4262;50.980;13.892;2023-04-06T11:12:37;10.30;;;4.90;;
8450;SDS011;4262;50.980;13.892;2023-04-06T11:15:04;10.57;;;5.63;;
8450;SDS011;4262;50.980;13.892;2023-04-06T11:17:31;10.40;;;4.80;;
8450;SDS011;4262;50.980;13.892;2023-04-06T11:20:01;10.83;;;4.63;;
8450;SDS011;4262;50.980;13.892;2023-04-06T11:22:31;13.00;;;4.63;;
8450;SDS011;4262;50.980;13.892;2023-04-06T11:25:05;14.27;;;5.10;;
8450;SDS011;4262;50.980;13.892;2023-04-06T11:27:33;10.67;;;4.70;;
8450;SDS011;4262;50.980;13.892;2023-04-06T11:30:01;13.40;;;5.53;;
8450;SDS011;4262;50.980;13.892;2023-04-06T11:32:28;10.33;;;4.67;;
8450;SDS011;4262;50.980;13.892;2023-04-06T11:34:57;11.53;;;4.80;;
8450;SDS011;4262;50.980;13.892;2023-04-06T11:37:26;9.80;;;4.00;;
8450;SDS011;4262;50.980;13.892;2023-04-06T11:39:55;10.47;;;4.30;;
8450;SDS011;4262;50.980;13.892;2023-04-06T11:42:23;10.70;;;5.30;;
8450;SDS011;4262;50.980;13.892;2023-04-06T11:44:53;11.07;;;4.90;;
8450;SDS011;4262;50.980;13.892;2023-04-06T11:47:26;11.80;;;5.07;;
8450;SDS011;4262;50.980;13.892;2023-04-06T11:49:53;12.20;;;5.50;;
8450;SDS011;4262;50.980;13.892;2023-04-06T11:52:21;12.83;;;5.60;;
8450;SDS011;4262;50.980;13.892;2023-04-06T11:54:52;10.73;;;4.93;;
8450;SDS011;4262;50.980;13.892;2023-04-06T11:57:21;11.47;;;4.60;;
8450;SDS011;4262;50.980;13.892;2023-04-06T11:59:48;12.17;;;4.60;;
8450;SDS011;4262;50.980;13.892;2023-04-06T12:02:15;10.40;;;5.17;;
8450;SDS011;4262;50.980;13.892;2023-04-06T12:04:44;9.93;;;4.90;;
8450;SDS011;4262;50.980;13.892;2023-04-06T12:07:10;13.00;;;5.90;;
8450;SDS011;4262;50.980;13.892;2023-04-06T12:09:37;13.77;;;5.37;;
8450;SDS011;4262;50.980;13.892;2023-04-06T12:12:04;12.73;;;5.03;;
8450;SDS011;4262;50.980;13.892;2023-04-06T12:14:34;11.73;;;5.13;;
8450;SDS011;4262;50.980;13.892;2023-04-06T12:17:00;11.80;;;5.37;;
8450;SDS011;4262;50.980;13.892;2023-04-06T12:19:27;13.20;;;6.00;;
8450;SDS011;4262;50.980;13.892;2023-04-06T12:21:54;13.77;;;5.47;;
8450;SDS011;4262;50.980;13.892;2023-04-06T12:24:23;12.10;;;5.60;;
8450;SDS011;4262;50.980;13.892;2023-04-06T12:26:50;12.63;;;5.20;;
8450;SDS011;4262;50.980;13.892;2023-04-06T12:29:17;14.40;;;5.00;;
8450;SDS011;4262;50.980;13.892;2023-04-06T12:31:45;9.70;;;4.40;;
8450;SDS011;4262;50.980;13.892;2023-04-06T12:34:13;11.53;;;4.53;;
8450;SDS011;4262;50.980;13.892;2023-04-06T12:36:40;10.10;;;4.93;;
8450;SDS011;4262;50.980;13.892;2023-04-06T12:39:07;10.27;;;4.90;;
8450;SDS011;4262;50.980;13.892;2023-04-06T12:41:34;10.93;;;5.17;;
8450;SDS011;4262;50.980;13.892;2023-04-06T12:44:02;11.27;;;5.00;;
8450;SDS011;4262;50.980;13.892;2023-04-06T12:46:29;10.97;;;4.77;;
8450;SDS011;4262;50.980;13.892;2023-04-06T12:48:58;10.90;;;5.50;;
8450;SDS011;4262;50.980;13.892;2023-04-06T12:51:27;11.07;;;4.87;;
8450;SDS011;4262;50.980;13.892;2023-04-06T12:53:55;12.27;;;5.40;;
8450;SDS011;4262;50.980;13.892;2023-04-06T12:56:22;12.90;;;5.40;;
8450;SDS011;4262;50.980;13.892;2023-04-06T12:58:50;15.23;;;5.47;;
8450;SDS011;4262;50.980;13.892;2023-04-06T13:01:18;11.90;;;5.27;;
8450;SDS011;4262;50.980;13.892;2023-04-06T13:03:47;11.67;;;5.63;;
8450;SDS011;4262;50.980;13.892;2023-04-06T13:06:17;11.17;;;5.20;;
8450;SDS011;4262;50.980;13.892;2023-04-06T13:08:44;10.97;;;4.87;;
8450;SDS011;4262;50.980;13.892;2023-04-06T13:11:12;11.40;;;5.17;;
8450;SDS011;4262;50.980;13.892;2023-04-06T13:13:41;10.73;;;5.27;;
8450;SDS011;4262;50.980;13.892;2023-04-06T13:16:08;12.30;;;5.87;;
8450;SDS011;4262;50.980;13.892;2023-04-06T13:18:35;10.60;;;5.43;;
8450;SDS011;4262;50.980;13.892;2023-04-06T13:21:03;11.70;;;5.30;;
8450;SDS011;4262;50.980;13.892;2023-04-06T13:23:32;12.80;;;5.50;;
8450;SDS011;4262;50.980;13.892;2023-04-06T13:26:00;11.77;;;5.23;;
8450;SDS011;4262;50.980;13.892;2023-04-06T13:28:28;10.17;;;5.57;;
8450;SDS011;4262;50.980;13.892;2023-04-06T13:30:57;9.23;;;4.40;;
8450;SDS011;4262;50.980;13.892;2023-04-06T13:33:25;10.67;;;4.90;;
8450;SDS011;4262;50.980;13.892;2023-04-06T13:35:51;10.27;;;4.57;;
8450;SDS011;4262;50.980;13.892;2023-04-06T13:38:18;11.27;;;4.87;;
8450;SDS011;4262;50.980;13.892;2023-04-06T13:40:46;17.60;;;5.57;;
8450;SDS011;4262;50.980;13.892;2023-04-06T13:43:13;10.40;;;4.80;;
8450;SDS011;4262;50.980;13.892;2023-04-06T13:45:41;11.90;;;5.20;;
8450;SDS011;4262;50.980;13.892;2023-04-06T13:48:15;12.50;;;5.10;;
8450;SDS011;4262;50.980;13.892;2023-04-06T13:50:42;11.93;;;5.47;;
8450;SDS011;4262;50.980;13.892;2023-04-06T13:53:09;11.10;;;5.30;;
8450;SDS011;4262;50.980;13.892;2023-04-06T13:55:35;13.20;;;6.63;;
8450;SDS011;4262;50.980;13.892;2023-04-06T13:58:03;11.03;;;4.80;;
8450;SDS011;4262;50.980;13.892;2023-04-06T14:00:30;11.73;;;6.00;;
8450;SDS011;4262;50.980;13.892;2023-04-06T14:02:57;12.33;;;5.90;;
8450;SDS011;4262;50.980;13.892;2023-04-06T14:05:25;11.17;;;6.10;;
8450;SDS011;4262;50.980;13.892;2023-04-06T14:07:53;10.70;;;5.50;;
8450;SDS011;4262;50.980;13.892;2023-04-06T14:10:20;11.27;;;5.30;;
8450;SDS011;4262;50.980;13.892;2023-04-06T14:12:49;13.57;;;5.47;;
8450;SDS011;4262;50.980;13.892;2023-04-06T14:15:17;13.30;;;6.10;;
8450;SDS011;4262;50.980;13.892;2023-04-06T14:17:45;12.10;;;6.10;;
8450;SDS011;4262;50.980;13.892;2023-04-06T14:20:12;13.40;;;5.83;;
8450;SDS011;4262;50.980;13.892;2023-04-06T14:22:40;9.90;;;5.03;;
8450;SDS011;4262;50.980;13.892;2023-04-06T14:25:09;11.57;;;5.37;;
8450;SDS011;4262;50.980;13.892;2023-04-06T14:27:36;14.47;;;5.80;;
8450;SDS011;4262;50.980;13.892;2023-04-06T14:30:03;19.70;;;5.63;;
8450;SDS011;4262;50.980;13.892;2023-04-06T14:32:33;12.80;;;6.03;;
8450;SDS011;4262;50.980;13.892;2023-04-06T14:35:02;16.00;;;5.20;;
8450;SDS011;4262;50.980;13.892;2023-04-06T14:37:29;25.07;;;15.00;;
8450;SDS011;4262;50.980;13.892;2023-04-06T14:39:56;13.53;;;6.57;;
8450;SDS011;4262;50.980;13.892;2023-04-06T14:42:23;11.90;;;6.23;;
8450;SDS011;4262;50.980;13.892;2023-04-06T14:44:49;12.67;;;5.40;;
8450;SDS011;4262;50.980;13.892;2023-04-06T14:47:17;13.27;;;5.10;;
8450;SDS011;4262;50.980;13.892;2023-04-06T14:49:47;12.43;;;5.90;;
8450;SDS011;4262;50.980;13.892;2023-04-06T14:52:16;24.07;;;14.77;;
8450;SDS011;4262;50.980;13.892;2023-04-06T14:54:44;12.70;;;5.50;;
8450;SDS011;4262;50.980;13.892;2023-04-06T14:57:11;11.13;;;5.70;;
8450;SDS011;4262;50.980;13.892;2023-04-06T14:59:37;10.77;;;5.73;;
8450;SDS011;4262;50.980;13.892;2023-04-06T15:02:04;12.57;;;4.97;;
8450;SDS011;4262;50.980;13.892;2023-04-06T15:04:33;11.17;;;5.60;;
8450;SDS011;4262;50.980;13.892;2023-04-06T15:07:01;11.47;;;5.53;;
8450;SDS011;4262;50.980;13.892;2023-04-06T15:09:28;11.53;;;5.93;;
8450;SDS011;4262;50.980;13.892;2023-04-06T15:11:55;10.60;;;5.20;;
8450;SDS011;4262;50.980;13.892;2023-04-06T15:14:23;15.00;;;9.80;;
8450;SDS011;4262;50.980;13.892;2023-04-06T15:16:50;11.87;;;5.53;;
8450;SDS011;4262;50.980;13.892;2023-04-06T15:19:17;16.63;;;5.27;;
8450;SDS011;4262;50.980;13.892;2023-04-06T15:21:43;13.73;;;5.50;;
8450;SDS011;4262;50.980;13.892;2023-04-06T15:24:13;11.50;;;5.00;;
8450;SDS011;4262;50.980;13.892;2023-04-06T15:26:39;14.57;;;5.63;;
8450;SDS011;4262;50.980;13.892;2023-04-06T15:29:06;10.40;;;5.60;;
8450;SDS011;4262;50.980;13.892;2023-04-06T15:31:33;10.93;;;4.93;;
8450;SDS011;4262;50.980;13.892;2023-04-06T15:34:00;12.03;;;6.10;;
8450;SDS011;4262;50.980;13.892;2023-04-06T15:36:27;12.30;;;5.80;;
8450;SDS011;4262;50.980;13.892;2023-04-06T15:38:55;11.10;;;5.70;;
8450;SDS011;4262;50.980;13.892;2023-04-06T15:41:23;10.93;;;6.00;;
8450;SDS011;4262;50.980;13.892;2023-04-06T15:43:51;16.93;;;7.63;;
8450;SDS011;4262;50.980;13.892;2023-04-06T15:46:18;10.73;;;5.60;;
8450;SDS011;4262;50.980;13.892;2023-04-06T15:48:45;13.70;;;5.70;;
8450;SDS011;4262;50.980;13.892;2023-04-06T15:51:12;17.30;;;6.33;;
8450;SDS011;4262;50.980;13.892;2023-04-06T15:53:38;11.97;;;6.00;;
8450;SDS011;4262;50.980;13.892;2023-04-06T15:56:05;11.40;;;5.77;;
8450;SDS011;4262;50.980;13.892;2023-04-06T15:58:35;11.70;;;5.80;;
8450;SDS011;4262;50.980;13.892;2023-04-06T16:01:09;11.60;;;5.40;;
8450;SDS011;4262;50.980;13.892;2023-04-06T16:03:38;10.97;;;5.10;;
8450;SDS011;4262;50.980;13.892;2023-04-06T16:06:04;10.93;;;5.50;;
8450;SDS011;4262;50.980;13.892;2023-04-06T16:08:32;15.10;;;5.63;;
8450;SDS011;4262;50.980;13.892;2023-04-06T16:10:58;12.20;;;5.63;;
8450;SDS011;4262;50.980;13.892;2023-04-06T16:13:25;10.30;;;5.70;;
8450;SDS011;4262;50.980;13.892;2023-04-06T16:15:55;11.37;;;5.43;;
8450;SDS011;4262;50.980;13.892;2023-04-06T16:18:21;13.20;;;5.87;;
8450;SDS011;4262;50.980;13.892;2023-04-06T16:20:48;10.70;;;5.97;;
8450;SDS011;4262;50.980;13.892;2023-04-06T16:23:15;14.17;;;6.40;;
8450;SDS011;4262;50.980;13.892;2023-04-06T16:25:42;12.13;;;5.83;;
8450;SDS011;4262;50.980;13.892;2023-04-06T16:28:08;13.57;;;5.30;;
8450;SDS011;4262;50.980;13.892;2023-04-06T16:30:36;11.53;;;5.00;;
8450;SDS011;4262;50.980;13.892;2023-04-06T16:33:04;10.82;;;5.60;;
8450;SDS011;4262;50.980;13.892;2023-04-06T16:35:33;11.30;;;5.57;;
8450;SDS011;4262;50.980;13.892;2023-04-06T16:37:59;12.37;;;6.60;;
8450;SDS011;4262;50.980;13.892;2023-04-06T16:40:26;11.97;;;6.00;;
8450;SDS011;4262;50.980;13.892;2023-04-06T16:42:53;12.50;;;5.70;;
8450;SDS011;4262;50.980;13.892;2023-04-06T16:45:22;11.67;;;6.17;;
8450;SDS011;4262;50.980;13.892;2023-04-06T16:47:49;11.20;;;5.57;;
8450;SDS011;4262;50.980;13.892;2023-04-06T16:50:17;10.50;;;5.10;;
8450;SDS011;4262;50.980;13.892;2023-04-06T16:52:44;9.03;;;4.57;;
8450;SDS011;4262;50.980;13.892;2023-04-06T16:55:12;10.20;;;5.00;;
8450;SDS011;4262;50.980;13.892;2023-04-06T16:57:39;13.40;;;5.20;;
8450;SDS011;4262;50.980;13.892;2023-04-06T17:00:06;10.90;;;5.03;;
8450;SDS011;4262;50.980;13.892;2023-04-06T17:02:34;9.97;;;4.67;;
8450;SDS011;4262;50.980;13.892;2023-04-06T17:05:01;11.70;;;5.00;;
8450;SDS011;4262;50.980;13.892;2023-04-06T17:07:30;10.37;;;5.00;;
8450;SDS011;4262;50.980;13.892;2023-04-06T17:09:58;9.70;;;4.63;;
8450;SDS011;4262;50.980;13.892;2023-04-06T17:12:25;9.30;;;4.60;;
8450;SDS011;4262;50.980;13.892;2023-04-06T17:14:54;11.10;;;5.70;;
8450;SDS011;4262;50.980;13.892;2023-04-06T17:17:21;11.27;;;4.90;;
8450;SDS011;4262;50.980;13.892;2023-04-06T17:19:48;9.60;;;5.40;;
8450;SDS011;4262;50.980;13.892;2023-04-06T17:22:15;9.73;;;5.43;;
8450;SDS011;4262;50.980;13.892;2023-04-06T17:24:47;11.20;;;5.27;;
8450;SDS011;4262;50.980;13.892;2023-04-06T17:27:14;12.20;;;6.70;;
8450;SDS011;4262;50.980;13.892;2023-04-06T17:29:41;11.37;;;5.87;;
8450;SDS011;4262;50.980;13.892;2023-04-06T17:32:07;13.00;;;6.07;;
8450;SDS011;4262;50.980;13.892;2023-04-06T17:34:34;12.00;;;6.13;;
8450;SDS011;4262;50.980;13.892;2023-04-06T17:37:01;14.60;;;6.30;;
8450;SDS011;4262;50.980;13.892;2023-04-06T17:39:27;13.40;;;6.40;;
8450;SDS011;4262;50.980;13.892;2023-04-06T17:41:56;13.63;;;6.40;;
8450;SDS011;4262;50.980;13.892;2023-04-06T17:44:24;16.70;;;6.80;;
8450;SDS011;4262;50.980;13.892;2023-04-06T17:46:51;12.70;;;6.23;;
8450;SDS011;4262;50.980;13.892;2023-04-06T17:49:18;14.70;;;7.30;;
8450;SDS011;4262;50.980;13.892;2023-04-06T17:51:44;11.80;;;6.80;;
8450;SDS011;4262;50.980;13.892;2023-04-06T17:54:11;13.63;;;7.17;;
8450;SDS011;4262;50.980;13.892;2023-04-06T17:56:38;12.27;;;7.50;;
8450;SDS011;4262;50.980;13.892;2023-04-06T17:59:06;10.97;;;6.80;;
8450;SDS011;4262;50.980;13.892;2023-04-06T18:01:35;15.73;;;6.70;;
8450;SDS011;4262;50.980;13.892;2023-04-06T18:04:02;11.77;;;6.77;;
8450;SDS011;4262;50.980;13.892;2023-04-06T18:06:29;12.50;;;7.57;;
8450;SDS011;4262;50.980;13.892;2023-04-06T18:08:56;12.90;;;7.40;;
8450;SDS011;4262;50.980;13.892;2023-04-06T18:11:24;13.27;;;7.23;;
8450;SDS011;4262;50.980;13.892;2023-04-06T18:13:53;12.00;;;7.07;;
8450;SDS011;4262;50.980;13.892;2023-04-06T18:16:21;11.00;;;6.70;;
8450;SDS011;4262;50.980;13.892;2023-04-06T18:18:48;15.43;;;7.70;;
8450;SDS011;4262;50.980;13.892;2023-04-06T18:21:15;12.20;;;7.17;;
8450;SDS011;4262;50.980;13.892;2023-04-06T18:23:42;13.30;;;7.70;;
8450;SDS011;4262;50.980;13.892;2023-04-06T18:26:13;17.80;;;8.20;;